sensor_id;sensor_type;location;lat;lon;timestamp;P1;durP1;ratioP1;P2;durP2;ratioP2
74707;SDS011;63360;50.104;8.074;2023-03-14T00:01:24;4.82;;;2.28;;
74707;SDS011;63360;50.104;8.074;2023-03-14T00:03:51;4.90;;;2.30;;
74707;SDS011;63360;50.104;8.074;2023-03-14T00:06:17;6.05;;;2.28;;
74707;SDS011;63360;50.104;8.074;2023-03-14T00:08:44;5.43;;;2.60;;
74707;SDS011;63360;50.104;8.074;2023-03-14T00:11:12;6.67;;;2.80;;
74707;SDS011;63360;50.104;8.074;2023-03-14T00:13:46;5.18;;;2.80;;
74707;SDS011;63360;50.104;8.074;2023-03-14T00:16:13;7.38;;;3.40;;
74707;SDS011;63360;50.104;8.074;2023-03-14T00:18:43;6.53;;;3.15;;
74707;SDS011;63360;50.104;8.074;2023-03-14T00:21:10;5.57;;;3.28;;
74707;SDS011;63360;50.104;8.074;2023-03-14T00:23:38;6.77;;;3.10;;
74707;SDS011;63360;50.104;8.074;2023-03-14T00:26:10;6.45;;;2.83;;
74707;SDS011;63360;50.104;8.074;2023-03-14T00:28:39;7.00;;;2.50;;
74707;SDS011;63360;50.104;8.074;2023-03-14T00:31:07;8.10;;;3.58;;
74707;SDS011;63360;50.104;8.074;2023-03-14T00:33:35;7.65;;;3.15;;
74707;SDS011;63360;50.104;8.074;2023-03-14T00:36:03;5.40;;;3.03;;
74707;SDS011;63360;50.104;8.074;2023-03-14T00:38:32;6.60;;;2.92;;
74707;SDS011;63360;50.104;8.074;2023-03-14T00:40:59;5.50;;;2.90;;
74707;SDS011;63360;50.104;8.074;2023-03-14T00:43:28;5.00;;;2.35;;
74707;SDS011;63360;50.104;8.074;2023-03-14T00:45:55;4.93;;;2.33;;
74707;SDS011;63360;50.104;8.074;2023-03-14T00:48:21;4.70;;;2.40;;
74707;SDS011;63360;50.104;8.074;2023-03-14T00:50:47;6.68;;;2.45;;
74707;SDS011;63360;50.104;8.074;2023-03-14T00:53:14;6.53;;;2.13;;
74707;SDS011;63360;50.104;8.074;2023-03-14T00:55:42;4.65;;;2.30;;
74707;SDS011;63360;50.104;8.074;2023-03-14T00:58:09;6.00;;;2.45;;
74707;SDS011;63360;50.104;8.074;2023-03-14T01:00:37;7.07;;;2.37;;
74707;SDS011;63360;50.104;8.074;2023-03-14T01:03:04;8.77;;;2.50;;
74707;SDS011;63360;50.104;8.074;2023-03-14T01:05:31;8.05;;;2.53;;
74707;SDS011;63360;50.104;8.074;2023-03-14T01:07:58;7.70;;;2.40;;
74707;SDS011;63360;50.104;8.074;2023-03-14T01:10:24;6.28;;;2.40;;
74707;SDS011;63360;50.104;8.074;2023-03-14T01:12:51;4.70;;;2.13;;
74707;SDS011;63360;50.104;8.074;2023-03-14T01:15:17;8.38;;;2.30;;
74707;SDS011;63360;50.104;8.074;2023-03-14T01:17:46;5.00;;;2.47;;
74707;SDS011;63360;50.104;8.074;2023-03-14T01:20:13;6.18;;;2.45;;
74707;SDS011;63360;50.104;8.074;2023-03-14T01:22:41;6.97;;;2.60;;
74707;SDS011;63360;50.104;8.074;2023-03-14T01:25:09;13.90;;;2.53;;
74707;SDS011;63360;50.104;8.074;2023-03-14T01:27:37;5.35;;;2.45;;
74707;SDS011;63360;50.104;8.074;2023-03-14T01:30:04;6.32;;;2.47;;
74707;SDS011;63360;50.104;8.074;2023-03-14T01:32:31;5.97;;;2.30;;
74707;SDS011;63360;50.104;8.074;2023-03-14T01:34:57;10.02;;;2.50;;
74707;SDS011;63360;50.104;8.074;2023-03-14T01:37:24;6.77;;;3.07;;
74707;SDS011;63360;50.104;8.074;2023-03-14T01:39:50;6.45;;;2.50;;
74707;SDS011;63360;50.104;8.074;2023-03-14T01:42:16;6.78;;;3.20;;
74707;SDS011;63360;50.104;8.074;2023-03-14T01:44:47;7.20;;;2.63;;
74707;SDS011;63360;50.104;8.074;2023-03-14T01:47:14;5.97;;;2.85;;
74707;SDS011;63360;50.104;8.074;2023-03-14T01:49:41;5.93;;;2.83;;
74707;SDS011;63360;50.104;8.074;2023-03-14T01:52:11;8.32;;;2.85;;
74707;SDS011;63360;50.104;8.074;2023-03-14T01:54:45;6.38;;;2.45;;
74707;SDS011;63360;50.104;8.074;2023-03-14T01:57:17;6.88;;;2.15;;
74707;SDS011;63360;50.104;8.074;2023-03-14T02:00:10;7.43;;;2.25;;
74707;SDS011;63360;50.104;8.074;2023-03-14T02:02:41;6.20;;;2.70;;
74707;SDS011;63360;50.104;8.074;2023-03-14T02:05:10;9.13;;;3.00;;
74707;SDS011;63360;50.104;8.074;2023-03-14T02:07:46;7.20;;;3.33;;
74707;SDS011;63360;50.104;8.074;2023-03-14T02:10:16;8.02;;;3.90;;
74707;SDS011;63360;50.104;8.074;2023-03-14T02:12:46;6.57;;;3.10;;
74707;SDS011;63360;50.104;8.074;2023-03-14T02:15:15;8.63;;;3.27;;
74707;SDS011;63360;50.104;8.074;2023-03-14T02:17:41;6.60;;;2.50;;
74707;SDS011;63360;50.104;8.074;2023-03-14T02:22:58;9.68;;;2.78;;
74707;SDS011;63360;50.104;8.074;2023-03-14T02:25:34;7.93;;;3.30;;
74707;SDS011;63360;50.104;8.074;2023-03-14T02:28:03;18.43;;;6.37;;
74707;SDS011;63360;50.104;8.074;2023-03-14T02:30:30;13.85;;;4.60;;
74707;SDS011;63360;50.104;8.074;2023-03-14T02:32:58;9.45;;;3.30;;
74707;SDS011;63360;50.104;8.074;2023-03-14T02:35:37;13.73;;;4.15;;
74707;SDS011;63360;50.104;8.074;2023-03-14T02:40:43;7.87;;;2.10;;
74707;SDS011;63360;50.104;8.074;2023-03-14T02:43:10;7.65;;;2.22;;
74707;SDS011;63360;50.104;8.074;2023-03-14T02:48:10;6.20;;;1.65;;
74707;SDS011;63360;50.104;8.074;2023-03-14T02:50:40;6.72;;;1.80;;
74707;SDS011;63360;50.104;8.074;2023-03-14T02:53:07;6.03;;;1.63;;
74707;SDS011;63360;50.104;8.074;2023-03-14T02:55:34;4.95;;;1.40;;
74707;SDS011;63360;50.104;8.074;2023-03-14T02:58:00;6.05;;;1.80;;
74707;SDS011;63360;50.104;8.074;2023-03-14T03:00:27;5.82;;;1.30;;
74707;SDS011;63360;50.104;8.074;2023-03-14T03:02:53;7.22;;;1.50;;
74707;SDS011;63360;50.104;8.074;2023-03-14T03:05:20;4.60;;;1.20;;
74707;SDS011;63360;50.104;8.074;2023-03-14T03:07:46;5.18;;;1.10;;
74707;SDS011;63360;50.104;8.074;2023-03-14T03:10:12;3.97;;;1.02;;
74707;SDS011;63360;50.104;8.074;2023-03-14T03:12:39;3.45;;;0.90;;
74707;SDS011;63360;50.104;8.074;2023-03-14T03:15:05;3.35;;;0.80;;
74707;SDS011;63360;50.104;8.074;2023-03-14T03:17:32;3.53;;;0.90;;
74707;SDS011;63360;50.104;8.074;2023-03-14T03:19:58;3.05;;;0.63;;
74707;SDS011;63360;50.104;8.074;2023-03-14T03:22:25;3.17;;;0.70;;
74707;SDS011;63360;50.104;8.074;2023-03-14T03:24:51;4.32;;;0.90;;
74707;SDS011;63360;50.104;8.074;2023-03-14T03:27:18;3.30;;;0.60;;
74707;SDS011;63360;50.104;8.074;2023-03-14T03:29:44;5.50;;;0.97;;
74707;SDS011;63360;50.104;8.074;2023-03-14T03:32:10;3.35;;;0.80;;
74707;SDS011;63360;50.104;8.074;2023-03-14T03:34:37;4.38;;;0.90;;
74707;SDS011;63360;50.104;8.074;2023-03-14T03:37:03;4.22;;;1.10;;
74707;SDS011;63360;50.104;8.074;2023-03-14T03:39:30;3.97;;;0.88;;
74707;SDS011;63360;50.104;8.074;2023-03-14T03:41:56;3.40;;;0.87;;
74707;SDS011;63360;50.104;8.074;2023-03-14T03:44:22;5.95;;;1.17;;
74707;SDS011;63360;50.104;8.074;2023-03-14T03:46:49;3.63;;;0.80;;
74707;SDS011;63360;50.104;8.074;2023-03-14T03:49:15;5.82;;;0.90;;
74707;SDS011;63360;50.104;8.074;2023-03-14T03:51:42;4.05;;;0.90;;
74707;SDS011;63360;50.104;8.074;2023-03-14T03:54:08;5.63;;;1.10;;
74707;SDS011;63360;50.104;8.074;2023-03-14T03:56:34;3.95;;;1.50;;
74707;SDS011;63360;50.104;8.074;2023-03-14T03:59:01;4.85;;;1.10;;
74707;SDS011;63360;50.104;8.074;2023-03-14T04:01:27;4.22;;;0.90;;
74707;SDS011;63360;50.104;8.074;2023-03-14T04:03:54;2.78;;;0.90;;
74707;SDS011;63360;50.104;8.074;2023-03-14T04:06:20;3.17;;;0.60;;
74707;SDS011;63360;50.104;8.074;2023-03-14T04:08:47;3.65;;;0.65;;
74707;SDS011;63360;50.104;8.074;2023-03-14T04:11:13;4.82;;;0.95;;
74707;SDS011;63360;50.104;8.074;2023-03-14T04:13:42;2.33;;;0.70;;
74707;SDS011;63360;50.104;8.074;2023-03-14T04:16:13;4.78;;;0.60;;
74707;SDS011;63360;50.104;8.074;2023-03-14T04:18:42;4.30;;;0.70;;
74707;SDS011;63360;50.104;8.074;2023-03-14T04:21:09;3.28;;;0.70;;
74707;SDS011;63360;50.104;8.074;2023-03-14T04:23:35;3.60;;;0.70;;
74707;SDS011;63360;50.104;8.074;2023-03-14T04:26:02;3.40;;;0.60;;
74707;SDS011;63360;50.104;8.074;2023-03-14T04:28:29;2.58;;;0.40;;
74707;SDS011;63360;50.104;8.074;2023-03-14T04:30:55;6.30;;;0.60;;
74707;SDS011;63360;50.104;8.074;2023-03-14T04:33:22;3.72;;;0.70;;
74707;SDS011;63360;50.104;8.074;2023-03-14T04:35:48;4.93;;;0.90;;
74707;SDS011;63360;50.104;8.074;2023-03-14T04:38:16;5.88;;;0.80;;
74707;SDS011;63360;50.104;8.074;2023-03-14T04:40:43;2.72;;;0.70;;
74707;SDS011;63360;50.104;8.074;2023-03-14T04:43:10;2.90;;;0.60;;
74707;SDS011;63360;50.104;8.074;2023-03-14T04:45:40;5.25;;;1.30;;
74707;SDS011;63360;50.104;8.074;2023-03-14T04:48:07;3.70;;;0.85;;
74707;SDS011;63360;50.104;8.074;2023-03-14T04:50:34;3.22;;;1.30;;
74707;SDS011;63360;50.104;8.074;2023-03-14T04:53:00;4.22;;;1.13;;
74707;SDS011;63360;50.104;8.074;2023-03-14T04:55:27;3.27;;;1.30;;
74707;SDS011;63360;50.104;8.074;2023-03-14T04:57:53;4.68;;;1.20;;
74707;SDS011;63360;50.104;8.074;2023-03-14T05:00:19;4.68;;;1.25;;
74707;SDS011;63360;50.104;8.074;2023-03-14T05:02:46;4.00;;;1.10;;
74707;SDS011;63360;50.104;8.074;2023-03-14T05:05:12;5.68;;;1.10;;
74707;SDS011;63360;50.104;8.074;2023-03-14T05:07:39;4.10;;;1.30;;
74707;SDS011;63360;50.104;8.074;2023-03-14T05:10:05;2.42;;;1.10;;
74707;SDS011;63360;50.104;8.074;2023-03-14T05:12:32;4.95;;;1.27;;
74707;SDS011;63360;50.104;8.074;2023-03-14T05:14:58;4.53;;;1.25;;
74707;SDS011;63360;50.104;8.074;2023-03-14T05:17:24;3.55;;;1.30;;
74707;SDS011;63360;50.104;8.074;2023-03-14T05:19:51;3.77;;;1.43;;
74707;SDS011;63360;50.104;8.074;2023-03-14T05:22:17;2.75;;;1.17;;
74707;SDS011;63360;50.104;8.074;2023-03-14T05:24:44;3.15;;;1.40;;
74707;SDS011;63360;50.104;8.074;2023-03-14T05:27:10;5.03;;;1.10;;
74707;SDS011;63360;50.104;8.074;2023-03-14T05:29:36;2.92;;;0.85;;
74707;SDS011;63360;50.104;8.074;2023-03-14T05:32:03;3.40;;;0.80;;
74707;SDS011;63360;50.104;8.074;2023-03-14T05:34:29;2.25;;;0.55;;
74707;SDS011;63360;50.104;8.074;2023-03-14T05:36:56;4.13;;;0.70;;
74707;SDS011;63360;50.104;8.074;2023-03-14T05:39:22;2.75;;;0.80;;
74707;SDS011;63360;50.104;8.074;2023-03-14T05:41:49;2.10;;;0.50;;
74707;SDS011;63360;50.104;8.074;2023-03-14T05:44:17;2.63;;;0.50;;
74707;SDS011;63360;50.104;8.074;2023-03-14T05:46:44;2.45;;;0.50;;
74707;SDS011;63360;50.104;8.074;2023-03-14T05:49:10;1.58;;;0.40;;
74707;SDS011;63360;50.104;8.074;2023-03-14T05:51:36;2.05;;;0.50;;
74707;SDS011;63360;50.104;8.074;2023-03-14T05:54:03;2.25;;;0.63;;
74707;SDS011;63360;50.104;8.074;2023-03-14T05:56:29;2.37;;;0.47;;
74707;SDS011;63360;50.104;8.074;2023-03-14T05:58:55;1.83;;;0.40;;
74707;SDS011;63360;50.104;8.074;2023-03-14T06:01:22;2.35;;;0.68;;
74707;SDS011;63360;50.104;8.074;2023-03-14T06:03:48;0.85;;;0.40;;
74707;SDS011;63360;50.104;8.074;2023-03-14T06:06:14;1.73;;;0.50;;
74707;SDS011;63360;50.104;8.074;2023-03-14T06:08:42;3.33;;;0.50;;
74707;SDS011;63360;50.104;8.074;2023-03-14T06:11:09;1.73;;;0.40;;
74707;SDS011;63360;50.104;8.074;2023-03-14T06:13:35;2.17;;;0.60;;
74707;SDS011;63360;50.104;8.074;2023-03-14T06:16:02;2.75;;;0.52;;
74707;SDS011;63360;50.104;8.074;2023-03-14T06:18:28;1.65;;;0.30;;
74707;SDS011;63360;50.104;8.074;2023-03-14T06:20:55;2.53;;;0.70;;
74707;SDS011;63360;50.104;8.074;2023-03-14T06:23:22;3.08;;;0.47;;
74707;SDS011;63360;50.104;8.074;2023-03-14T06:25:48;1.90;;;0.50;;
74707;SDS011;63360;50.104;8.074;2023-03-14T06:28:15;1.17;;;0.43;;
74707;SDS011;63360;50.104;8.074;2023-03-14T06:30:41;3.15;;;0.75;;
74707;SDS011;63360;50.104;8.074;2023-03-14T06:33:08;3.47;;;0.73;;
74707;SDS011;63360;50.104;8.074;2023-03-14T06:35:34;2.17;;;0.40;;
74707;SDS011;63360;50.104;8.074;2023-03-14T06:38:01;3.42;;;1.00;;
74707;SDS011;63360;50.104;8.074;2023-03-14T06:40:27;4.07;;;0.60;;
74707;SDS011;63360;50.104;8.074;2023-03-14T06:42:54;2.38;;;0.60;;
74707;SDS011;63360;50.104;8.074;2023-03-14T06:45:20;2.93;;;0.50;;
74707;SDS011;63360;50.104;8.074;2023-03-14T06:47:46;3.40;;;0.80;;
74707;SDS011;63360;50.104;8.074;2023-03-14T06:50:13;3.53;;;0.82;;
74707;SDS011;63360;50.104;8.074;2023-03-14T06:52:39;2.03;;;0.52;;
74707;SDS011;63360;50.104;8.074;2023-03-14T06:55:12;1.10;;;0.40;;
74707;SDS011;63360;50.104;8.074;2023-03-14T06:57:38;2.93;;;0.90;;
74707;SDS011;63360;50.104;8.074;2023-03-14T07:00:05;2.80;;;1.10;;
74707;SDS011;63360;50.104;8.074;2023-03-14T07:02:31;3.05;;;0.68;;
74707;SDS011;63360;50.104;8.074;2023-03-14T07:05:08;2.33;;;0.50;;
74707;SDS011;63360;50.104;8.074;2023-03-14T07:07:36;1.20;;;0.45;;
74707;SDS011;63360;50.104;8.074;2023-03-14T07:10:02;2.60;;;0.60;;
74707;SDS011;63360;50.104;8.074;2023-03-14T07:12:29;2.58;;;0.70;;
74707;SDS011;63360;50.104;8.074;2023-03-14T07:14:55;2.42;;;0.57;;
74707;SDS011;63360;50.104;8.074;2023-03-14T07:17:28;2.70;;;0.55;;
74707;SDS011;63360;50.104;8.074;2023-03-14T07:19:54;1.75;;;0.43;;
74707;SDS011;63360;50.104;8.074;2023-03-14T07:22:21;1.03;;;0.40;;
74707;SDS011;63360;50.104;8.074;2023-03-14T07:24:47;1.48;;;0.50;;
74707;SDS011;63360;50.104;8.074;2023-03-14T07:27:13;1.95;;;0.93;;
74707;SDS011;63360;50.104;8.074;2023-03-14T07:29:40;3.30;;;0.50;;
74707;SDS011;63360;50.104;8.074;2023-03-14T07:32:06;2.15;;;0.60;;
74707;SDS011;63360;50.104;8.074;2023-03-14T07:34:34;2.80;;;0.40;;
74707;SDS011;63360;50.104;8.074;2023-03-14T07:37:00;3.20;;;0.50;;
74707;SDS011;63360;50.104;8.074;2023-03-14T07:39:26;3.80;;;0.32;;
74707;SDS011;63360;50.104;8.074;2023-03-14T07:41:53;2.58;;;0.50;;
74707;SDS011;63360;50.104;8.074;2023-03-14T07:44:19;1.85;;;0.43;;
74707;SDS011;63360;50.104;8.074;2023-03-14T07:46:45;2.47;;;0.70;;
74707;SDS011;63360;50.104;8.074;2023-03-14T07:49:12;2.65;;;0.50;;
74707;SDS011;63360;50.104;8.074;2023-03-14T07:51:38;1.88;;;0.50;;
74707;SDS011;63360;50.104;8.074;2023-03-14T07:54:05;1.77;;;0.50;;
74707;SDS011;63360;50.104;8.074;2023-03-14T07:56:31;2.88;;;0.60;;
74707;SDS011;63360;50.104;8.074;2023-03-14T07:58:57;3.13;;;0.50;;
74707;SDS011;63360;50.104;8.074;2023-03-14T08:01:24;1.90;;;0.63;;
74707;SDS011;63360;50.104;8.074;2023-03-14T08:03:51;2.45;;;0.40;;
74707;SDS011;63360;50.104;8.074;2023-03-14T08:06:17;1.48;;;0.60;;
74707;SDS011;63360;50.104;8.074;2023-03-14T08:08:43;1.25;;;0.43;;
74707;SDS011;63360;50.104;8.074;2023-03-14T08:11:10;4.27;;;0.40;;
74707;SDS011;63360;50.104;8.074;2023-03-14T08:13:36;1.73;;;0.50;;
74707;SDS011;63360;50.104;8.074;2023-03-14T08:16:03;1.13;;;0.43;;
74707;SDS011;63360;50.104;8.074;2023-03-14T08:18:30;1.77;;;0.50;;
74707;SDS011;63360;50.104;8.074;2023-03-14T08:20:57;2.08;;;0.50;;
74707;SDS011;63360;50.104;8.074;2023-03-14T08:23:24;1.83;;;0.40;;
74707;SDS011;63360;50.104;8.074;2023-03-14T08:25:50;1.00;;;0.40;;
74707;SDS011;63360;50.104;8.074;2023-03-14T08:28:17;1.35;;;0.50;;
74707;SDS011;63360;50.104;8.074;2023-03-14T08:30:44;1.90;;;0.30;;
74707;SDS011;63360;50.104;8.074;2023-03-14T08:33:13;2.80;;;0.50;;
74707;SDS011;63360;50.104;8.074;2023-03-14T08:35:39;1.90;;;0.50;;
74707;SDS011;63360;50.104;8.074;2023-03-14T08:38:05;1.63;;;0.40;;
74707;SDS011;63360;50.104;8.074;2023-03-14T08:40:32;2.05;;;0.30;;
74707;SDS011;63360;50.104;8.074;2023-03-14T08:42:58;1.10;;;0.40;;
74707;SDS011;63360;50.104;8.074;2023-03-14T08:45:24;2.35;;;0.60;;
74707;SDS011;63360;50.104;8.074;2023-03-14T08:47:51;2.83;;;0.63;;
74707;SDS011;63360;50.104;8.074;2023-03-14T08:50:17;0.80;;;0.40;;
74707;SDS011;63360;50.104;8.074;2023-03-14T08:52:44;1.40;;;0.40;;
74707;SDS011;63360;50.104;8.074;2023-03-14T08:55:10;0.93;;;0.40;;
74707;SDS011;63360;50.104;8.074;2023-03-14T08:57:37;2.45;;;0.60;;
74707;SDS011;63360;50.104;8.074;2023-03-14T09:00:04;1.33;;;0.43;;
74707;SDS011;63360;50.104;8.074;2023-03-14T09:02:37;1.02;;;0.40;;
74707;SDS011;63360;50.104;8.074;2023-03-14T09:05:04;2.20;;;0.40;;
74707;SDS011;63360;50.104;8.074;2023-03-14T09:07:31;1.15;;;0.40;;
74707;SDS011;63360;50.104;8.074;2023-03-14T09:09:57;0.90;;;0.40;;
74707;SDS011;63360;50.104;8.074;2023-03-14T09:12:24;1.80;;;0.40;;
74707;SDS011;63360;50.104;8.074;2023-03-14T09:14:50;1.88;;;0.30;;
74707;SDS011;63360;50.104;8.074;2023-03-14T09:17:16;2.25;;;0.50;;
74707;SDS011;63360;50.104;8.074;2023-03-14T09:19:43;1.50;;;0.40;;
74707;SDS011;63360;50.104;8.074;2023-03-14T09:22:09;1.90;;;0.50;;
74707;SDS011;63360;50.104;8.074;2023-03-14T09:24:35;2.13;;;0.50;;
74707;SDS011;63360;50.104;8.074;2023-03-14T09:27:02;1.45;;;0.47;;
74707;SDS011;63360;50.104;8.074;2023-03-14T09:29:28;0.68;;;0.40;;
74707;SDS011;63360;50.104;8.074;2023-03-14T09:31:55;7.57;;;0.88;;
74707;SDS011;63360;50.104;8.074;2023-03-14T09:34:23;1.90;;;0.60;;
74707;SDS011;63360;50.104;8.074;2023-03-14T09:36:50;2.00;;;0.50;;
74707;SDS011;63360;50.104;8.074;2023-03-14T09:39:16;1.52;;;0.40;;
74707;SDS011;63360;50.104;8.074;2023-03-14T09:41:44;2.13;;;0.50;;
74707;SDS011;63360;50.104;8.074;2023-03-14T09:46:47;1.42;;;0.50;;
74707;SDS011;63360;50.104;8.074;2023-03-14T09:51:50;0.90;;;0.43;;
74707;SDS011;63360;50.104;8.074;2023-03-14T09:55:02;5.70;;;0.70;;
74707;SDS011;63360;50.104;8.074;2023-03-14T09:57:15;2.28;;;0.60;;
74707;SDS011;63360;50.104;8.074;2023-03-14T09:59:45;1.88;;;0.40;;
74707;SDS011;63360;50.104;8.074;2023-03-14T10:02:14;1.73;;;0.50;;
74707;SDS011;63360;50.104;8.074;2023-03-14T10:04:46;1.70;;;0.60;;
74707;SDS011;63360;50.104;8.074;2023-03-14T10:07:14;12.40;;;1.15;;
74707;SDS011;63360;50.104;8.074;2023-03-14T10:09:47;2.30;;;0.60;;
74707;SDS011;63360;50.104;8.074;2023-03-14T10:12:16;1.65;;;0.63;;
74707;SDS011;63360;50.104;8.074;2023-03-14T10:14:48;2.03;;;0.50;;
74707;SDS011;63360;50.104;8.074;2023-03-14T10:17:17;1.33;;;0.50;;
74707;SDS011;63360;50.104;8.074;2023-03-14T10:19:52;0.75;;;0.40;;
74707;SDS011;63360;50.104;8.074;2023-03-14T10:22:26;1.92;;;0.70;;
74707;SDS011;63360;50.104;8.074;2023-03-14T10:24:57;2.08;;;0.50;;
74707;SDS011;63360;50.104;8.074;2023-03-14T10:27:29;1.50;;;0.50;;
74707;SDS011;63360;50.104;8.074;2023-03-14T10:30:00;1.48;;;0.40;;
74707;SDS011;63360;50.104;8.074;2023-03-14T10:32:32;0.60;;;0.38;;
74707;SDS011;63360;50.104;8.074;2023-03-14T10:40:38;0.70;;;0.40;;
74707;SDS011;63360;50.104;8.074;2023-03-14T10:43:11;1.40;;;0.50;;
74707;SDS011;63360;50.104;8.074;2023-03-14T10:45:41;1.08;;;0.50;;
74707;SDS011;63360;50.104;8.074;2023-03-14T10:48:20;1.15;;;0.40;;
74707;SDS011;63360;50.104;8.074;2023-03-14T10:51:11;0.60;;;0.40;;
74707;SDS011;63360;50.104;8.074;2023-03-14T10:53:56;0.80;;;0.30;;
74707;SDS011;63360;50.104;8.074;2023-03-14T10:56:26;1.80;;;0.57;;
74707;SDS011;63360;50.104;8.074;2023-03-14T10:58:58;0.90;;;0.40;;
74707;SDS011;63360;50.104;8.074;2023-03-14T11:01:39;0.90;;;0.40;;
74707;SDS011;63360;50.104;8.074;2023-03-14T11:04:59;1.48;;;0.40;;
74707;SDS011;63360;50.104;8.074;2023-03-14T11:07:38;1.30;;;0.60;;
74707;SDS011;63360;50.104;8.074;2023-03-14T11:13:14;2.20;;;1.00;;
74707;SDS011;63360;50.104;8.074;2023-03-14T11:21:24;1.27;;;0.30;;
74707;SDS011;63360;50.104;8.074;2023-03-14T11:27:18;1.73;;;0.30;;
74707;SDS011;63360;50.104;8.074;2023-03-14T11:29:54;4.55;;;0.68;;
74707;SDS011;63360;50.104;8.074;2023-03-14T11:32:34;0.63;;;0.20;;
74707;SDS011;63360;50.104;8.074;2023-03-14T11:35:17;0.23;;;0.20;;
74707;SDS011;63360;50.104;8.074;2023-03-14T11:40:56;0.50;;;0.10;;
74707;SDS011;63360;50.104;8.074;2023-03-14T11:46:03;0.20;;;0.20;;
74707;SDS011;63360;50.104;8.074;2023-03-14T11:48:38;1.10;;;0.20;;
74707;SDS011;63360;50.104;8.074;2023-03-14T11:51:17;1.50;;;0.10;;
74707;SDS011;63360;50.104;8.074;2023-03-14T11:53:57;1.08;;;0.20;;
74707;SDS011;63360;50.104;8.074;2023-03-14T11:56:36;0.73;;;0.20;;
74707;SDS011;63360;50.104;8.074;2023-03-14T11:59:11;0.35;;;0.10;;
74707;SDS011;63360;50.104;8.074;2023-03-14T12:01:49;0.37;;;0.20;;
74707;SDS011;63360;50.104;8.074;2023-03-14T12:04:34;0.30;;;0.20;;
74707;SDS011;63360;50.104;8.074;2023-03-14T12:07:18;0.30;;;0.10;;
74707;SDS011;63360;50.104;8.074;2023-03-14T12:09:54;0.28;;;0.10;;
74707;SDS011;63360;50.104;8.074;2023-03-14T12:12:23;0.73;;;0.28;;
74707;SDS011;63360;50.104;8.074;2023-03-14T12:14:52;0.40;;;0.10;;
74707;SDS011;63360;50.104;8.074;2023-03-14T12:17:23;1.10;;;0.30;;
74707;SDS011;63360;50.104;8.074;2023-03-14T12:20:00;0.50;;;0.20;;
74707;SDS011;63360;50.104;8.074;2023-03-14T12:22:35;0.30;;;0.10;;
74707;SDS011;63360;50.104;8.074;2023-03-14T12:27:41;0.37;;;0.20;;
74707;SDS011;63360;50.104;8.074;2023-03-14T12:30:45;1.05;;;0.20;;
74707;SDS011;63360;50.104;8.074;2023-03-14T12:33:19;0.40;;;0.20;;
74707;SDS011;63360;50.104;8.074;2023-03-14T12:36:11;0.40;;;0.30;;
74707;SDS011;63360;50.104;8.074;2023-03-14T12:38:46;0.50;;;0.20;;
74707;SDS011;63360;50.104;8.074;2023-03-14T12:47:04;0.63;;;0.20;;
74707;SDS011;63360;50.104;8.074;2023-03-14T12:49:40;0.30;;;0.20;;
74707;SDS011;63360;50.104;8.074;2023-03-14T12:52:12;0.30;;;0.20;;
74707;SDS011;63360;50.104;8.074;2023-03-14T12:54:53;0.33;;;0.13;;
74707;SDS011;63360;50.104;8.074;2023-03-14T13:00:23;1.15;;;0.20;;
74707;SDS011;63360;50.104;8.074;2023-03-14T13:03:00;0.60;;;0.20;;
74707;SDS011;63360;50.104;8.074;2023-03-14T13:05:40;0.70;;;0.30;;
74707;SDS011;63360;50.104;8.074;2023-03-14T13:08:32;0.37;;;0.10;;
74707;SDS011;63360;50.104;8.074;2023-03-14T13:10:59;0.35;;;0.20;;
74707;SDS011;63360;50.104;8.074;2023-03-14T13:13:27;0.40;;;0.20;;
74707;SDS011;63360;50.104;8.074;2023-03-14T13:15:55;0.70;;;0.30;;
74707;SDS011;63360;50.104;8.074;2023-03-14T13:18:32;1.67;;;0.30;;
74707;SDS011;63360;50.104;8.074;2023-03-14T13:21:20;0.43;;;0.20;;
74707;SDS011;63360;50.104;8.074;2023-03-14T13:24:33;0.32;;;0.20;;
74707;SDS011;63360;50.104;8.074;2023-03-14T13:26:51;0.90;;;0.10;;
74707;SDS011;63360;50.104;8.074;2023-03-14T13:29:23;0.40;;;0.20;;
74707;SDS011;63360;50.104;8.074;2023-03-14T13:31:55;0.55;;;0.20;;
74707;SDS011;63360;50.104;8.074;2023-03-14T13:37:00;0.20;;;0.10;;
74707;SDS011;63360;50.104;8.074;2023-03-14T13:39:27;0.60;;;0.30;;
74707;SDS011;63360;50.104;8.074;2023-03-14T13:41:57;0.65;;;0.30;;
74707;SDS011;63360;50.104;8.074;2023-03-14T13:44:27;0.50;;;0.30;;
74707;SDS011;63360;50.104;8.074;2023-03-14T13:47:02;0.63;;;0.30;;
74707;SDS011;63360;50.104;8.074;2023-03-14T13:49:30;1.50;;;0.40;;
74707;SDS011;63360;50.104;8.074;2023-03-14T13:52:02;1.60;;;0.30;;
74707;SDS011;63360;50.104;8.074;2023-03-14T13:54:29;1.13;;;0.40;;
74707;SDS011;63360;50.104;8.074;2023-03-14T13:57:00;4.13;;;0.70;;
74707;SDS011;63360;50.104;8.074;2023-03-14T13:59:32;1.20;;;0.60;;
74707;SDS011;63360;50.104;8.074;2023-03-14T14:02:03;2.47;;;0.60;;
74707;SDS011;63360;50.104;8.074;2023-03-14T14:04:37;1.73;;;0.70;;
74707;SDS011;63360;50.104;8.074;2023-03-14T14:07:07;1.85;;;0.70;;
74707;SDS011;63360;50.104;8.074;2023-03-14T14:09:38;1.45;;;0.77;;
74707;SDS011;63360;50.104;8.074;2023-03-14T14:12:08;3.07;;;1.00;;
74707;SDS011;63360;50.104;8.074;2023-03-14T14:17:36;2.00;;;0.90;;
74707;SDS011;63360;50.104;8.074;2023-03-14T14:20:07;2.70;;;0.98;;
74707;SDS011;63360;50.104;8.074;2023-03-14T14:22:44;2.30;;;0.80;;
74707;SDS011;63360;50.104;8.074;2023-03-14T14:25:13;2.40;;;1.00;;
74707;SDS011;63360;50.104;8.074;2023-03-14T14:27:42;1.40;;;0.65;;
74707;SDS011;63360;50.104;8.074;2023-03-14T14:32:46;1.52;;;0.60;;
74707;SDS011;63360;50.104;8.074;2023-03-14T14:37:50;0.50;;;0.20;;
74707;SDS011;63360;50.104;8.074;2023-03-14T14:40:19;1.27;;;0.20;;
74707;SDS011;63360;50.104;8.074;2023-03-14T14:42:48;0.73;;;0.20;;
74707;SDS011;63360;50.104;8.074;2023-03-14T14:45:22;0.65;;;0.20;;
74707;SDS011;63360;50.104;8.074;2023-03-14T14:47:51;0.55;;;0.20;;
74707;SDS011;63360;50.104;8.074;2023-03-14T14:53:01;0.30;;;0.20;;
74707;SDS011;63360;50.104;8.074;2023-03-14T14:55:39;0.65;;;0.10;;
74707;SDS011;63360;50.104;8.074;2023-03-14T14:58:23;0.30;;;0.10;;
74707;SDS011;63360;50.104;8.074;2023-03-14T15:01:14;0.82;;;0.10;;
74707;SDS011;63360;50.104;8.074;2023-03-14T15:03:52;0.30;;;0.10;;
74707;SDS011;63360;50.104;8.074;2023-03-14T15:06:19;0.45;;;0.20;;
74707;SDS011;63360;50.104;8.074;2023-03-14T15:08:48;0.60;;;0.20;;
74707;SDS011;63360;50.104;8.074;2023-03-14T15:11:18;1.00;;;0.30;;
74707;SDS011;63360;50.104;8.074;2023-03-14T15:13:46;1.10;;;0.40;;
74707;SDS011;63360;50.104;8.074;2023-03-14T15:16:13;1.40;;;0.40;;
74707;SDS011;63360;50.104;8.074;2023-03-14T15:18:43;2.58;;;0.60;;
74707;SDS011;63360;50.104;8.074;2023-03-14T15:21:10;2.60;;;0.73;;
74707;SDS011;63360;50.104;8.074;2023-03-14T15:23:36;2.60;;;0.65;;
74707;SDS011;63360;50.104;8.074;2023-03-14T15:26:05;2.38;;;0.70;;
74707;SDS011;63360;50.104;8.074;2023-03-14T15:28:39;3.70;;;0.73;;
74707;SDS011;63360;50.104;8.074;2023-03-14T15:31:08;3.25;;;0.70;;
74707;SDS011;63360;50.104;8.074;2023-03-14T15:33:36;2.17;;;0.73;;
74707;SDS011;63360;50.104;8.074;2023-03-14T15:36:03;3.75;;;0.70;;
74707;SDS011;63360;50.104;8.074;2023-03-14T15:38:30;2.92;;;0.60;;
74707;SDS011;63360;50.104;8.074;2023-03-14T15:40:57;2.00;;;0.40;;
74707;SDS011;63360;50.104;8.074;2023-03-14T15:43:23;1.17;;;0.43;;
74707;SDS011;63360;50.104;8.074;2023-03-14T15:45:49;1.90;;;0.50;;
74707;SDS011;63360;50.104;8.074;2023-03-14T15:48:20;3.15;;;0.55;;
74707;SDS011;63360;50.104;8.074;2023-03-14T15:50:47;2.55;;;0.50;;
74707;SDS011;63360;50.104;8.074;2023-03-14T15:53:13;1.90;;;0.53;;
74707;SDS011;63360;50.104;8.074;2023-03-14T15:55:40;2.17;;;0.60;;
74707;SDS011;63360;50.104;8.074;2023-03-14T15:58:09;1.45;;;0.40;;
74707;SDS011;63360;50.104;8.074;2023-03-14T16:00:46;3.33;;;0.82;;
74707;SDS011;63360;50.104;8.074;2023-03-14T16:03:13;1.35;;;0.40;;